sensor_id;sensor_type;location;lat;lon;timestamp;temperature;humidity
34008;DHT22;41085;51.594;7.138;2022-11-15T00:03:30;17.50;94.90
34008;DHT22;41085;51.594;7.138;2022-11-15T00:07:31;17.70;94.80
34008;DHT22;41085;51.594;7.138;2022-11-15T00:11:31;17.10;94.60
34008;DHT22;41085;51.594;7.138;2022-11-15T00:15:37;18.30;95.10
34008;DHT22;41085;51.594;7.138;2022-11-15T00:19:38;17.90;94.30
34008;DHT22;41085;51.594;7.138;2022-11-15T00:23:39;17.70;95.50
34008;DHT22;41085;51.594;7.138;2022-11-15T00:27:40;17.50;95.20
34008;DHT22;41085;51.594;7.138;2022-11-15T00:31:40;17.60;95.50
34008;DHT22;41085;51.594;7.138;2022-11-15T00:35:41;18.20;95.60
34008;DHT22;41085;51.594;7.138;2022-11-15T00:39:41;18.30;95.10
34008;DHT22;41085;51.594;7.138;2022-11-15T00:43:42;18.20;95.10
34008;DHT22;41085;51.594;7.138;2022-11-15T00:47:44;19.20;95.30
34008;DHT22;41085;51.594;7.138;2022-11-15T00:51:46;17.40;94.80
34008;DHT22;41085;51.594;7.138;2022-11-15T00:55:46;19.80;96.20
34008;DHT22;41085;51.594;7.138;2022-11-15T00:59:47;19.40;96.50
34008;DHT22;41085;51.594;7.138;2022-11-15T01:03:47;19.20;96.40
34008;DHT22;41085;51.594;7.138;2022-11-15T01:07:52;18.90;95.90
34008;DHT22;41085;51.594;7.138;2022-11-15T01:11:53;17.90;94.90
34008;DHT22;41085;51.594;7.138;2022-11-15T01:15:53;17.60;96.40
34008;DHT22;41085;51.594;7.138;2022-11-15T01:19:54;17.40;96.00
34008;DHT22;41085;51.594;7.138;2022-11-15T01:23:56;15.40;96.20
34008;DHT22;41085;51.594;7.138;2022-11-15T01:27:56;18.70;95.90
34008;DHT22;41085;51.594;7.138;2022-11-15T01:31:57;19.40;97.20
34008;DHT22;41085;51.594;7.138;2022-11-15T01:35:57;17.10;95.80
34008;DHT22;41085;51.594;7.138;2022-11-15T01:39:58;17.30;95.60
34008;DHT22;41085;51.594;7.138;2022-11-15T01:48:33;17.60;94.70
34008;DHT22;41085;51.594;7.138;2022-11-15T01:52:35;17.40;95.40
34008;DHT22;41085;51.594;7.138;2022-11-15T01:57:12;20.10;96.50
34008;DHT22;41085;51.594;7.138;2022-11-15T02:01:06;17.60;95.00
34008;DHT22;41085;51.594;7.138;2022-11-15T02:05:07;17.50;96.50
34008;DHT22;41085;51.594;7.138;2022-11-15T02:09:08;17.60;96.10
34008;DHT22;41085;51.594;7.138;2022-11-15T02:13:09;18.80;96.50
34008;DHT22;41085;51.594;7.138;2022-11-15T03:11:52;17.70;96.00
34008;DHT22;41085;51.594;7.138;2022-11-15T03:16:11;17.80;96.30
34008;DHT22;41085;51.594;7.138;2022-11-15T03:20:16;17.40;96.30
34008;DHT22;41085;51.594;7.138;2022-11-15T03:24:19;17.40;97.00
34008;DHT22;41085;51.594;7.138;2022-11-15T03:28:25;17.80;96.50
34008;DHT22;41085;51.594;7.138;2022-11-15T03:32:36;17.70;96.90
34008;DHT22;41085;51.594;7.138;2022-11-15T03:36:39;17.70;96.50
34008;DHT22;41085;51.594;7.138;2022-11-15T03:40:42;17.70;96.80
34008;DHT22;41085;51.594;7.138;2022-11-15T03:49:05;17.70;96.60
34008;DHT22;41085;51.594;7.138;2022-11-15T03:53:07;18.40;96.90
34008;DHT22;41085;51.594;7.138;2022-11-15T03:57:08;17.60;96.70
34008;DHT22;41085;51.594;7.138;2022-11-15T04:01:09;17.60;96.70
34008;DHT22;41085;51.594;7.138;2022-11-15T04:05:10;17.50;96.70
34008;DHT22;41085;51.594;7.138;2022-11-15T04:09:15;17.70;97.70
34008;DHT22;41085;51.594;7.138;2022-11-15T04:13:38;18.20;97.50
34008;DHT22;41085;51.594;7.138;2022-11-15T04:18:01;18.00;96.80
34008;DHT22;41085;51.594;7.138;2022-11-15T04:22:03;18.00;97.40
34008;DHT22;41085;51.594;7.138;2022-11-15T04:26:30;17.50;97.30
34008;DHT22;41085;51.594;7.138;2022-11-15T04:30:40;18.40;97.00
34008;DHT22;41085;51.594;7.138;2022-11-15T04:34:41;17.60;97.00
34008;DHT22;41085;51.594;7.138;2022-11-15T04:38:41;17.60;96.90
34008;DHT22;41085;51.594;7.138;2022-11-15T04:42:42;17.10;97.50
34008;DHT22;41085;51.594;7.138;2022-11-15T04:46:59;19.80;97.50
34008;DHT22;41085;51.594;7.138;2022-11-15T04:51:04;19.50;97.40
34008;DHT22;41085;51.594;7.138;2022-11-15T04:55:27;17.60;97.80
34008;DHT22;41085;51.594;7.138;2022-11-15T04:59:28;17.60;97.70
34008;DHT22;41085;51.594;7.138;2022-11-15T05:03:32;18.20;97.70
34008;DHT22;41085;51.594;7.138;2022-11-15T05:07:51;18.00;97.60
34008;DHT22;41085;51.594;7.138;2022-11-15T05:11:51;17.40;97.10
34008;DHT22;41085;51.594;7.138;2022-11-15T05:16:21;17.80;98.20
34008;DHT22;41085;51.594;7.138;2022-11-15T05:20:42;20.70;96.00
34008;DHT22;41085;51.594;7.138;2022-11-15T05:24:43;16.90;96.60
34008;DHT22;41085;51.594;7.138;2022-11-15T05:28:45;17.00;96.10
34008;DHT22;41085;51.594;7.138;2022-11-15T05:32:48;17.20;96.80
34008;DHT22;41085;51.594;7.138;2022-11-15T05:36:51;17.50;98.00
34008;DHT22;41085;51.594;7.138;2022-11-15T05:40:53;16.80;96.80
34008;DHT22;41085;51.594;7.138;2022-11-15T05:45:05;17.20;96.20
34008;DHT22;41085;51.594;7.138;2022-11-15T05:49:07;17.90;96.50
34008;DHT22;41085;51.594;7.138;2022-11-15T05:53:11;17.90;96.60
34008;DHT22;41085;51.594;7.138;2022-11-15T05:57:13;17.70;96.50
34008;DHT22;41085;51.594;7.138;2022-11-15T06:01:14;17.70;97.00
34008;DHT22;41085;51.594;7.138;2022-11-15T06:05:14;17.20;97.10
34008;DHT22;41085;51.594;7.138;2022-11-15T06:09:34;17.50;97.10
34008;DHT22;41085;51.594;7.138;2022-11-15T06:13:42;17.90;97.60
34008;DHT22;41085;51.594;7.138;2022-11-15T06:17:51;17.40;96.60
34008;DHT22;41085;51.594;7.138;2022-11-15T06:21:52;17.80;97.50
34008;DHT22;41085;51.594;7.138;2022-11-15T06:25:53;17.80;97.40
34008;DHT22;41085;51.594;7.138;2022-11-15T06:30:10;18.10;98.50
34008;DHT22;41085;51.594;7.138;2022-11-15T06:34:15;17.80;97.80
34008;DHT22;41085;51.594;7.138;2022-11-15T06:38:33;17.50;98.00
34008;DHT22;41085;51.594;7.138;2022-11-15T06:42:44;18.60;97.80
34008;DHT22;41085;51.594;7.138;2022-11-15T06:46:47;17.60;98.40
34008;DHT22;41085;51.594;7.138;2022-11-15T06:50:55;17.80;98.30
34008;DHT22;41085;51.594;7.138;2022-11-15T06:54:56;17.70;97.10
34008;DHT22;41085;51.594;7.138;2022-11-15T06:58:56;17.80;98.30
34008;DHT22;41085;51.594;7.138;2022-11-15T07:03:00;17.90;97.80
34008;DHT22;41085;51.594;7.138;2022-11-15T07:07:01;17.40;97.30
34008;DHT22;41085;51.594;7.138;2022-11-15T07:11:04;18.60;98.30
34008;DHT22;41085;51.594;7.138;2022-11-15T07:15:08;17.70;97.60
34008;DHT22;41085;51.594;7.138;2022-11-15T07:19:08;17.70;97.60
34008;DHT22;41085;51.594;7.138;2022-11-15T07:23:09;17.30;97.70
34008;DHT22;41085;51.594;7.138;2022-11-15T07:27:10;17.40;97.40
34008;DHT22;41085;51.594;7.138;2022-11-15T07:31:10;17.30;97.40
34008;DHT22;41085;51.594;7.138;2022-11-15T07:35:11;17.90;97.70
34008;DHT22;41085;51.594;7.138;2022-11-15T07:39:12;17.60;98.40
34008;DHT22;41085;51.594;7.138;2022-11-15T07:43:15;17.70;97.50
34008;DHT22;41085;51.594;7.138;2022-11-15T07:47:49;18.60;98.20
34008;DHT22;41085;51.594;7.138;2022-11-15T07:51:49;17.80;97.50
34008;DHT22;41085;51.594;7.138;2022-11-15T07:55:50;17.80;97.60
34008;DHT22;41085;51.594;7.138;2022-11-15T07:59:56;17.60;97.70
34008;DHT22;41085;51.594;7.138;2022-11-15T08:04:15;17.20;97.50
34008;DHT22;41085;51.594;7.138;2022-11-15T08:08:26;17.90;98.20
34008;DHT22;41085;51.594;7.138;2022-11-15T08:12:28;18.10;99.00
34008;DHT22;41085;51.594;7.138;2022-11-15T08:16:49;17.60;98.30
34008;DHT22;41085;51.594;7.138;2022-11-15T08:20:50;18.10;98.20
34008;DHT22;41085;51.594;7.138;2022-11-15T08:24:50;18.00;98.40
34008;DHT22;41085;51.594;7.138;2022-11-15T08:28:51;17.60;98.30
34008;DHT22;41085;51.594;7.138;2022-11-15T08:32:52;17.80;98.30
34008;DHT22;41085;51.594;7.138;2022-11-15T08:36:54;18.20;98.40
34008;DHT22;41085;51.594;7.138;2022-11-15T08:41:01;18.00;97.30
34008;DHT22;41085;51.594;7.138;2022-11-15T08:45:09;17.90;95.30
34008;DHT22;41085;51.594;7.138;2022-11-15T08:49:10;17.60;94.50
34008;DHT22;41085;51.594;7.138;2022-11-15T08:53:10;18.30;95.00
34008;DHT22;41085;51.594;7.138;2022-11-15T08:57:11;17.50;95.70
34008;DHT22;41085;51.594;7.138;2022-11-15T09:01:21;17.40;96.20
34008;DHT22;41085;51.594;7.138;2022-11-15T09:05:22;17.70;96.40
34008;DHT22;41085;51.594;7.138;2022-11-15T09:09:22;17.60;96.40
34008;DHT22;41085;51.594;7.138;2022-11-15T09:13:24;17.70;96.30
34008;DHT22;41085;51.594;7.138;2022-11-15T09:17:24;17.90;97.80
34008;DHT22;41085;51.594;7.138;2022-11-15T09:21:25;17.90;96.40
34008;DHT22;41085;51.594;7.138;2022-11-15T09:25:25;19.00;96.60
34008;DHT22;41085;51.594;7.138;2022-11-15T09:29:26;18.20;96.00
34008;DHT22;41085;51.594;7.138;2022-11-15T09:33:37;19.10;98.60
34008;DHT22;41085;51.594;7.138;2022-11-15T09:38:08;19.60;97.90
34008;DHT22;41085;51.594;7.138;2022-11-15T09:51:49;17.70;95.20
34008;DHT22;41085;51.594;7.138;2022-11-15T09:56:20;18.30;95.40
34008;DHT22;41085;51.594;7.138;2022-11-15T10:00:43;16.70;94.80
34008;DHT22;41085;51.594;7.138;2022-11-15T10:04:45;17.90;95.00
34008;DHT22;41085;51.594;7.138;2022-11-15T10:09:33;17.80;95.10
34008;DHT22;41085;51.594;7.138;2022-11-15T10:13:32;18.10;95.10
34008;DHT22;41085;51.594;7.138;2022-11-15T10:17:58;18.80;95.50
34008;DHT22;41085;51.594;7.138;2022-11-15T10:22:56;17.90;95.30
34008;DHT22;41085;51.594;7.138;2022-11-15T10:26:51;17.20;95.60
34008;DHT22;41085;51.594;7.138;2022-11-15T10:30:59;17.80;97.30
34008;DHT22;41085;51.594;7.138;2022-11-15T10:35:26;18.20;95.50
34008;DHT22;41085;51.594;7.138;2022-11-15T10:39:27;18.10;96.50
34008;DHT22;41085;51.594;7.138;2022-11-15T10:43:28;17.60;95.90
34008;DHT22;41085;51.594;7.138;2022-11-15T10:47:31;17.60;97.90
34008;DHT22;41085;51.594;7.138;2022-11-15T10:56:38;17.10;97.00
34008;DHT22;41085;51.594;7.138;2022-11-15T11:05:35;18.20;95.80
34008;DHT22;41085;51.594;7.138;2022-11-15T11:09:40;17.90;96.50
34008;DHT22;41085;51.594;7.138;2022-11-15T11:13:46;17.90;96.20
34008;DHT22;41085;51.594;7.138;2022-11-15T11:18:32;18.10;98.00
34008;DHT22;41085;51.594;7.138;2022-11-15T11:50:28;18.50;94.40
34008;DHT22;41085;51.594;7.138;2022-11-15T11:59:05;18.40;94.40
34008;DHT22;41085;51.594;7.138;2022-11-15T12:08:20;18.90;94.80
34008;DHT22;41085;51.594;7.138;2022-11-15T12:16:41;18.40;94.70
34008;DHT22;41085;51.594;7.138;2022-11-15T12:25:07;17.70;95.10
34008;DHT22;41085;51.594;7.138;2022-11-15T12:29:18;18.10;94.80
34008;DHT22;41085;51.594;7.138;2022-11-15T12:33:41;18.20;95.50
34008;DHT22;41085;51.594;7.138;2022-11-15T12:37:55;18.30;95.00
34008;DHT22;41085;51.594;7.138;2022-11-15T12:46:02;18.40;96.50
34008;DHT22;41085;51.594;7.138;2022-11-15T12:50:12;17.40;96.10
34008;DHT22;41085;51.594;7.138;2022-11-15T12:58:59;18.50;95.10
34008;DHT22;41085;51.594;7.138;2022-11-15T13:03:23;18.10;94.80
34008;DHT22;41085;51.594;7.138;2022-11-15T13:11:45;15.70;95.70
34008;DHT22;41085;51.594;7.138;2022-11-15T13:15:56;17.80;94.80
34008;DHT22;41085;51.594;7.138;2022-11-15T13:24:13;18.00;95.00
34008;DHT22;41085;51.594;7.138;2022-11-15T13:32:16;18.70;95.30
34008;DHT22;41085;51.594;7.138;2022-11-15T13:36:23;18.20;95.10
34008;DHT22;41085;51.594;7.138;2022-11-15T13:40:27;18.10;95.60
34008;DHT22;41085;51.594;7.138;2022-11-15T13:44:42;18.10;95.00
34008;DHT22;41085;51.594;7.138;2022-11-15T13:49:02;18.70;96.60
34008;DHT22;41085;51.594;7.138;2022-11-15T13:53:06;17.70;94.50
34008;DHT22;41085;51.594;7.138;2022-11-15T13:57:25;18.10;95.80
34008;DHT22;41085;51.594;7.138;2022-11-15T14:01:44;19.00;95.40
34008;DHT22;41085;51.594;7.138;2022-11-15T14:14:32;18.40;94.40
34008;DHT22;41085;51.594;7.138;2022-11-15T14:18:58;18.20;95.80
34008;DHT22;41085;51.594;7.138;2022-11-15T14:23:23;17.90;94.30
34008;DHT22;41085;51.594;7.138;2022-11-15T14:27:27;18.20;94.30
34008;DHT22;41085;51.594;7.138;2022-11-15T14:31:34;17.90;94.70
34008;DHT22;41085;51.594;7.138;2022-11-15T14:35:57;18.50;95.80
34008;DHT22;41085;51.594;7.138;2022-11-15T14:39:58;19.20;94.90
34008;DHT22;41085;51.594;7.138;2022-11-15T14:44:05;18.40;95.50
34008;DHT22;41085;51.594;7.138;2022-11-15T14:48:09;18.90;96.60
34008;DHT22;41085;51.594;7.138;2022-11-15T14:52:50;19.20;96.10
34008;DHT22;41085;51.594;7.138;2022-11-15T15:01:23;15.80;94.20
34008;DHT22;41085;51.594;7.138;2022-11-15T15:05:44;18.30;95.10
34008;DHT22;41085;51.594;7.138;2022-11-15T15:09:48;18.50;97.50
34008;DHT22;41085;51.594;7.138;2022-11-15T15:14:05;18.80;96.20
34008;DHT22;41085;51.594;7.138;2022-11-15T15:18:17;23.00;95.70
34008;DHT22;41085;51.594;7.138;2022-11-15T15:22:20;17.90;95.00
34008;DHT22;41085;51.594;7.138;2022-11-15T15:26:25;17.60;94.20
34008;DHT22;41085;51.594;7.138;2022-11-15T15:30:28;17.90;96.30
34008;DHT22;41085;51.594;7.138;2022-11-15T15:34:38;18.00;94.70
34008;DHT22;41085;51.594;7.138;2022-11-15T15:38:39;17.40;94.10
34008;DHT22;41085;51.594;7.138;2022-11-15T15:42:55;18.10;95.40
34008;DHT22;41085;51.594;7.138;2022-11-15T15:46:58;18.50;96.10
34008;DHT22;41085;51.594;7.138;2022-11-15T15:50:59;18.80;98.40
34008;DHT22;41085;51.594;7.138;2022-11-15T15:55:00;16.30;97.40
34008;DHT22;41085;51.594;7.138;2022-11-15T15:59:06;19.90;98.00
34008;DHT22;41085;51.594;7.138;2022-11-15T16:03:13;19.10;94.80
34008;DHT22;41085;51.594;7.138;2022-11-15T16:07:21;18.60;96.30
34008;DHT22;41085;51.594;7.138;2022-11-15T16:11:27;18.60;94.70
34008;DHT22;41085;51.594;7.138;2022-11-15T16:15:30;17.60;95.30
34008;DHT22;41085;51.594;7.138;2022-11-15T16:19:35;18.10;94.70
34008;DHT22;41085;51.594;7.138;2022-11-15T16:23:35;17.50;96.90
34008;DHT22;41085;51.594;7.138;2022-11-15T16:27:36;17.80;96.60
34008;DHT22;41085;51.594;7.138;2022-11-15T16:31:38;18.00;97.10
34008;DHT22;41085;51.594;7.138;2022-11-15T16:35:44;18.00;94.70
34008;DHT22;41085;51.594;7.138;2022-11-15T16:39:54;18.00;95.00
34008;DHT22;41085;51.594;7.138;2022-11-15T16:43:54;19.40;95.70
34008;DHT22;41085;51.594;7.138;2022-11-15T16:47:55;17.80;94.90
34008;DHT22;41085;51.594;7.138;2022-11-15T16:51:56;18.80;95.20
34008;DHT22;41085;51.594;7.138;2022-11-15T16:55:57;17.80;95.50
34008;DHT22;41085;51.594;7.138;2022-11-15T16:59:57;19.50;96.50
34008;DHT22;41085;51.594;7.138;2022-11-15T17:03:58;18.30;95.00
34008;DHT22;41085;51.594;7.138;2022-11-15T17:08:14;17.70;94.90
34008;DHT22;41085;51.594;7.138;2022-11-15T17:12:15;17.90;95.40
34008;DHT22;41085;51.594;7.138;2022-11-15T17:16:17;18.40;94.90
34008;DHT22;41085;51.594;7.138;2022-11-15T17:20:18;18.00;94.60
34008;DHT22;41085;51.594;7.138;2022-11-15T17:24:19;17.90;94.30
34008;DHT22;41085;51.594;7.138;2022-11-15T17:28:20;18.00;94.30
34008;DHT22;41085;51.594;7.138;2022-11-15T17:32:20;18.00;94.30
34008;DHT22;41085;51.594;7.138;2022-11-15T17:36:21;18.40;94.40
34008;DHT22;41085;51.594;7.138;2022-11-15T17:40:22;17.80;94.30
34008;DHT22;41085;51.594;7.138;2022-11-15T17:44:22;18.00;94.20
34008;DHT22;41085;51.594;7.138;2022-11-15T17:48:23;17.80;95.20
34008;DHT22;41085;51.594;7.138;2022-11-15T17:52:30;17.70;94.20
34008;DHT22;41085;51.594;7.138;2022-11-15T17:56:38;18.40;94.60
34008;DHT22;41085;51.594;7.138;2022-11-15T18:00:39;17.80;94.50
34008;DHT22;41085;51.594;7.138;2022-11-15T18:04:39;18.10;94.60
34008;DHT22;41085;51.594;7.138;2022-11-15T18:08:44;18.10;94.60
34008;DHT22;41085;51.594;7.138;2022-11-15T18:12:45;18.10;94.50
34008;DHT22;41085;51.594;7.138;2022-11-15T18:16:46;18.10;94.60
34008;DHT22;41085;51.594;7.138;2022-11-15T18:20:46;18.40;94.70
34008;DHT22;41085;51.594;7.138;2022-11-15T18:24:47;18.00;94.50
34008;DHT22;41085;51.594;7.138;2022-11-15T18:28:48;18.60;94.60
34008;DHT22;41085;51.594;7.138;2022-11-15T18:32:49;18.00;94.40
34008;DHT22;41085;51.594;7.138;2022-11-15T18:36:51;18.80;94.60
34008;DHT22;41085;51.594;7.138;2022-11-15T18:40:51;18.10;94.40
34008;DHT22;41085;51.594;7.138;2022-11-15T18:44:52;18.20;94.40
34008;DHT22;41085;51.594;7.138;2022-11-15T18:48:53;18.00;94.30
34008;DHT22;41085;51.594;7.138;2022-11-15T18:52:54;18.30;94.30
34008;DHT22;41085;51.594;7.138;2022-11-15T18:56:55;18.20;94.30
34008;DHT22;41085;51.594;7.138;2022-11-15T19:05:06;18.00;94.60
34008;DHT22;41085;51.594;7.138;2022-11-15T19:17:22;18.00;94.30
34008;DHT22;41085;51.594;7.138;2022-11-15T19:21:24;18.10;95.80
34008;DHT22;41085;51.594;7.138;2022-11-15T19:25:30;19.30;95.60
34008;DHT22;41085;51.594;7.138;2022-11-15T19:29:31;18.20;96.00
34008;DHT22;41085;51.594;7.138;2022-11-15T19:33:32;18.20;96.70
34008;DHT22;41085;51.594;7.138;2022-11-15T19:37:33;18.60;94.80
34008;DHT22;41085;51.594;7.138;2022-11-15T19:41:35;18.40;96.70
34008;DHT22;41085;51.594;7.138;2022-11-15T19:45:39;18.60;94.40
34008;DHT22;41085;51.594;7.138;2022-11-15T19:49:42;17.20;93.70
34008;DHT22;41085;51.594;7.138;2022-11-15T19:54:31;18.70;95.70
34008;DHT22;41085;51.594;7.138;2022-11-15T19:58:18;18.10;93.90
34008;DHT22;41085;51.594;7.138;2022-11-15T20:02:41;19.60;97.30
34008;DHT22;41085;51.594;7.138;2022-11-15T20:06:42;19.20;95.80
34008;DHT22;41085;51.594;7.138;2022-11-15T20:10:52;18.20;96.90
34008;DHT22;41085;51.594;7.138;2022-11-15T20:15:22;18.40;97.30
34008;DHT22;41085;51.594;7.138;2022-11-15T20:19:36;18.30;95.10
34008;DHT22;41085;51.594;7.138;2022-11-15T20:23:52;18.00;96.50
34008;DHT22;41085;51.594;7.138;2022-11-15T20:28:06;18.00;93.70
34008;DHT22;41085;51.594;7.138;2022-11-15T20:32:17;18.90;97.70
34008;DHT22;41085;51.594;7.138;2022-11-15T20:36:19;18.30;95.10
34008;DHT22;41085;51.594;7.138;2022-11-15T20:40:22;17.90;96.70
34008;DHT22;41085;51.594;7.138;2022-11-15T20:44:36;17.90;94.60
34008;DHT22;41085;51.594;7.138;2022-11-15T20:48:47;17.80;93.60
34008;DHT22;41085;51.594;7.138;2022-11-15T20:52:50;18.70;95.20
34008;DHT22;41085;51.594;7.138;2022-11-15T20:56:51;18.20;94.80
34008;DHT22;41085;51.594;7.138;2022-11-15T21:00:54;18.20;96.50
34008;DHT22;41085;51.594;7.138;2022-11-15T21:04:55;18.20;95.10
34008;DHT22;41085;51.594;7.138;2022-11-15T21:08:55;18.30;94.90
34008;DHT22;41085;51.594;7.138;2022-11-15T21:13:14;19.10;94.40
34008;DHT22;41085;51.594;7.138;2022-11-15T21:17:15;18.10;93.70
34008;DHT22;41085;51.594;7.138;2022-11-15T21:21:15;18.20;93.70
34008;DHT22;41085;51.594;7.138;2022-11-15T21:25:19;17.50;93.50
34008;DHT22;41085;51.594;7.138;2022-11-15T21:29:20;18.10;93.90
34008;DHT22;41085;51.594;7.138;2022-11-15T21:33:20;18.30;93.80
34008;DHT22;41085;51.594;7.138;2022-11-15T21:37:23;17.60;93.60
34008;DHT22;41085;51.594;7.138;2022-11-15T21:41:23;17.40;93.40
34008;DHT22;41085;51.594;7.138;2022-11-15T21:45:24;18.00;93.60
34008;DHT22;41085;51.594;7.138;2022-11-15T21:49:29;18.00;93.60
34008;DHT22;41085;51.594;7.138;2022-11-15T21:53:30;18.90;93.80
34008;DHT22;41085;51.594;7.138;2022-11-15T21:57:31;18.60;92.50
34008;DHT22;41085;51.594;7.138;2022-11-15T22:01:32;17.90;95.30
34008;DHT22;41085;51.594;7.138;2022-11-15T22:05:51;20.70;94.00
34008;DHT22;41085;51.594;7.138;2022-11-15T22:09:52;18.40;93.50
34008;DHT22;41085;51.594;7.138;2022-11-15T22:13:53;19.20;94.60
34008;DHT22;41085;51.594;7.138;2022-11-15T22:17:54;19.90;94.50
34008;DHT22;41085;51.594;7.138;2022-11-15T22:21:57;17.80;94.00
34008;DHT22;41085;51.594;7.138;2022-11-15T22:26:11;18.30;96.60
34008;DHT22;41085;51.594;7.138;2022-11-15T22:30:27;18.40;94.40
34008;DHT22;41085;51.594;7.138;2022-11-15T22:34:31;21.60;94.80
34008;DHT22;41085;51.594;7.138;2022-11-15T22:38:34;18.10;95.30
34008;DHT22;41085;51.594;7.138;2022-11-15T22:42:34;18.00;96.10
34008;DHT22;41085;51.594;7.138;2022-11-15T22:46:38;18.00;95.70
34008;DHT22;41085;51.594;7.138;2022-11-15T22:50:38;18.40;95.10
34008;DHT22;41085;51.594;7.138;2022-11-15T22:54:39;17.90;94.90
34008;DHT22;41085;51.594;7.138;2022-11-15T22:58:50;18.00;95.80
34008;DHT22;41085;51.594;7.138;2022-11-15T23:02:51;19.60;95.00
34008;DHT22;41085;51.594;7.138;2022-11-15T23:06:51;17.90;96.80
34008;DHT22;41085;51.594;7.138;2022-11-15T23:10:57;17.20;96.00
34008;DHT22;41085;51.594;7.138;2022-11-15T23:15:16;17.90;94.50
34008;DHT22;41085;51.594;7.138;2022-11-15T23:19:17;18.10;95.80
34008;DHT22;41085;51.594;7.138;2022-11-15T23:23:18;18.00;95.70
34008;DHT22;41085;51.594;7.138;2022-11-15T23:27:19;18.30;95.40
34008;DHT22;41085;51.594;7.138;2022-11-15T23:31:20;17.70;95.60
34008;DHT22;41085;51.594;7.138;2022-11-15T23:35:39;17.80;95.20
34008;DHT22;41085;51.594;7.138;2022-11-15T23:39:39;17.90;95.00
34008;DHT22;41085;51.594;7.138;2022-11-15T23:43:40;18.00;95.00
34008;DHT22;41085;51.594;7.138;2022-11-15T23:47:42;17.90;95.00
34008;DHT22;41085;51.594;7.138;2022-11-15T23:51:43;17.80;95.00
34008;DHT22;41085;51.594;7.138;2022-11-15T23:55:52;18.00;95.10
34008;DHT22;41085;51.594;7.138;2022-11-15T23:59:53;17.90;95.10
